CheckWX is a tool to help pilots better visualize weather data.  It is not intended as a substitute for an official pre-flight weather briefing.

21:05:04 UTC

KFSI METAR
Henry Post AAF (Fort Sill) Airport
Fort Sill, Oklahoma, USA
Current

9 mins ago

KFSI 232056Z AUTO 16019G27KT 10SM FEW041 BKN060 29/23 A2989 RMK AO2 PK WND 13029/35 SLP113 T02890233 57013
Observed
May-23 @ 20:56 UTC
Wind
  • 160° at 19 KTS
  • Gusting to 27 KTS
Visibility
10 SM
Flight Rules
VFR
Cloud Levels
  • Few at 4,100' AGL
  • Broken at 6,000' AGL
Temperature
29°C / 84°F
Dewpoint
23°C / 73°F
Heat Index
32°C / 90°F
Humidity
70%
Altimeter
29.89" Hg
Pressure
1012.22 hPa
Previous

1 hour ago

KFSI 231956Z AUTO 16018G27KT 10SM FEW035 FEW042 OVC055 29/23 A2991 RMK AO2 PK WND 15028/08 SLP119 T02850234
Observed
May-23 @ 19:56 UTC
Wind
  • 160° at 18 KTS
  • Gusting to 27 KTS
Visibility
10 SM
Flight Rules
VFR
Cloud Levels
  • Few at 3,500' AGL
  • Few at 4,200' AGL
  • Overcast at 5,500' AGL
Temperature
29°C / 84°F
Dewpoint
23°C / 73°F
Heat Index
32°C / 90°F
Humidity
70%
Altimeter
29.91" Hg
Pressure
1012.92 hPa
Previous

2 hours ago

KFSI 231856Z AUTO 16018G23KT 10SM SCT035 BKN042 BKN050 28/24 A2991 RMK AO2 PK WND 14026/23 SLP120 T02820240
Observed
May-23 @ 18:56 UTC
Wind
  • 160° at 18 KTS
  • Gusting to 23 KTS
Visibility
10 SM
Flight Rules
VFR
Cloud Levels
  • Scattered at 3,500' AGL
  • Broken at 4,200' AGL
  • Broken at 5,000' AGL
Temperature
28°C / 82°F
Dewpoint
24°C / 75°F
Heat Index
32°C / 89°F
Humidity
79%
Altimeter
29.91" Hg
Pressure
1012.92 hPa